Time;durP1;ratioP1;P1;durP2;ratioP2;P2;SDS_P1;SDS_P2;PMS_P1;PMS_P2;Temp;Humidity;BMP_temperature;BMP_pressure;BME280_temperature;BME280_humidity;BME280_pressure;Samples;Min_cycle;Max_cycle;Signal;HPM_P1;HPM_P2
2021/08/04 00:01:56;;;;;;;12.20;6.05;;;;;;;15.08;79.98;100735.44;4854399;29;20034;-85
2021/08/04 00:04:21;;;;;;;10.35;4.85;;;;;;;14.98;79.96;100712.47;4870679;29;20148;-84
2021/08/04 00:06:46;;;;;;;13.05;5.32;;;;;;;15.04;79.94;100730.63;4839802;29;20069;-85
2021/08/04 00:09:12;;;;;;;10.32;5.40;;;;;;;14.98;80.75;100723.31;4853845;29;20034;-85
2021/08/04 00:11:37;;;;;;;10.77;4.80;;;;;;;15.05;81.18;100729.59;4856023;29;21685;-85
2021/08/04 00:14:03;;;;;;;14.90;5.38;;;;;;;15.03;81.39;100739.78;4855659;29;20495;-84
2021/08/04 00:16:29;;;;;;;11.38;5.68;;;;;;;15.10;81.09;100735.22;4837617;29;20041;-84
2021/08/04 00:18:55;;;;;;;10.98;4.88;;;;;;;15.15;81.33;100732.72;4853408;29;20041;-86
2021/08/04 00:21:20;;;;;;;16.58;5.50;;;;;;;15.08;81.28;100726.47;4854982;29;20037;-85
2021/08/04 00:23:46;;;;;;;13.05;5.35;;;;;;;15.04;81.74;100728.75;4851715;29;20581;-86
2021/08/04 00:26:12;;;;;;;11.07;5.45;;;;;;;14.96;81.46;100704.59;4841048;29;20403;-85
2021/08/04 00:28:38;;;;;;;17.67;5.70;;;;;;;15.14;81.16;100729.19;4854836;29;20494;-86
2021/08/04 00:31:03;;;;;;;10.30;5.35;;;;;;;15.14;81.25;100728.38;4855028;29;20047;-84
2021/08/04 00:33:29;;;;;;;12.02;4.63;;;;;;;15.14;81.26;100731.06;4852768;29;20029;-84
2021/08/04 00:35:54;;;;;;;10.38;5.15;;;;;;;15.18;81.55;100740.44;4852163;29;20051;-85
2021/08/04 00:38:20;;;;;;;14.18;5.80;;;;;;;15.09;81.99;100736.28;4855620;29;20029;-83
2021/08/04 00:40:46;;;;;;;11.82;5.00;;;;;;;14.98;82.50;100740.41;4853700;29;20030;-85
2021/08/04 00:43:12;;;;;;;11.38;5.43;;;;;;;14.95;82.87;100736.25;4855426;29;20109;-84
2021/08/04 00:45:37;;;;;;;10.38;4.90;;;;;;;14.84;82.83;100715.16;4852557;29;20053;-84
2021/08/04 00:48:03;;;;;;;11.57;5.38;;;;;;;15.01;82.53;100728.34;4839093;29;20046;-86
2021/08/04 00:50:29;;;;;;;11.80;4.93;;;;;;;15.04;81.57;100722.50;4849388;29;20116;-84
2021/08/04 00:52:55;;;;;;;13.43;5.55;;;;;;;15.03;81.70;100723.53;4854865;29;20115;-84
2021/08/04 00:55:20;;;;;;;9.20;5.25;;;;;;;15.01;81.97;100710.22;4844800;29;20093;-84
2021/08/04 00:57:46;;;;;;;10.20;5.28;;;;;;;14.99;82.29;100715.00;4852137;29;20078;-86
2021/08/04 01:00:12;;;;;;;11.32;5.43;;;;;;;14.92;82.18;100724.97;4839140;29;20029;-84
2021/08/04 01:02:39;;;;;;;11.27;6.20;;;;;;;14.94;82.03;100718.31;4838782;29;20030;-86
2021/08/04 01:05:08;;;;;;;9.93;5.05;;;;;;;14.93;82.22;100722.06;4838905;29;20029;-85
2021/08/04 01:07:51;;;;;;;14.30;5.05;;;;;;;14.96;82.38;100728.94;4849997;29;20449;-85
2021/08/04 01:10:33;;;;;;;12.05;5.03;;;;;;;14.91;82.50;100736.84;4850614;29;20030;-83
2021/08/04 01:13:15;;;;;;;12.27;5.35;;;;;;;14.87;82.79;100739.16;4852715;29;20396;-84
2021/08/04 01:16:11;;;;;;;11.30;5.75;;;;;;;14.84;82.34;100720.56;4839965;29;20030;-85
2021/08/04 01:19:03;;;;;;;16.67;5.47;;;;;;;14.94;82.48;100729.16;4840656;29;20033;-83
2021/08/04 01:21:49;;;;;;;11.52;5.80;;;;;;;14.92;81.75;100725.84;4858841;29;20410;-85
2021/08/04 01:24:25;;;;;;;12.02;5.60;;;;;;;14.97;81.13;100732.47;4860691;29;20524;-84
2021/08/04 01:26:51;;;;;;;11.75;5.53;;;;;;;14.91;81.11;100737.69;4838902;29;20069;-84
2021/08/04 01:29:18;;;;;;;12.73;5.90;;;;;;;14.86;81.53;100736.63;4851872;29;20038;-86
2021/08/04 01:31:45;;;;;;;11.75;5.25;;;;;;;14.86;82.30;100733.91;4839558;29;20025;-84
2021/08/04 01:34:11;;;;;;;11.27;5.10;;;;;;;14.81;81.98;100718.28;4837689;29;20117;-82
2021/08/04 01:36:37;;;;;;;12.98;5.43;;;;;;;14.89;81.73;100722.69;4839499;29;20101;-85
2021/08/04 01:39:04;;;;;;;10.27;5.13;;;;;;;14.91;82.04;100728.72;4842190;29;20048;-85
2021/08/04 01:41:30;;;;;;;14.57;5.40;;;;;;;14.91;81.91;100734.97;4857583;29;20098;-84
2021/08/04 01:43:56;;;;;;;11.43;5.75;;;;;;;14.72;81.72;100714.13;4842027;29;20068;-85
2021/08/04 01:46:22;;;;;;;10.50;5.35;;;;;;;14.75;82.25;100729.94;4845748;29;20116;-86
2021/08/04 01:48:48;;;;;;;12.90;5.88;;;;;;;14.66;83.04;100731.16;4856256;29;20423;-84
2021/08/04 01:51:14;;;;;;;13.65;5.25;;;;;;;14.63;83.31;100742.38;4855626;29;20118;-85
2021/08/04 01:53:41;;;;;;;13.15;5.30;;;;;;;14.66;83.71;100737.41;4853983;29;20128;-84
2021/08/04 01:56:07;;;;;;;11.65;5.32;;;;;;;14.63;83.21;100720.72;4855219;29;20543;-86
2021/08/04 01:58:32;;;;;;;11.52;5.53;;;;;;;14.81;83.31;100736.41;4855677;29;20085;-87
2021/08/04 02:00:58;;;;;;;9.23;5.15;;;;;;;14.82;83.15;100736.22;4837311;29;20069;-87
2021/08/04 02:03:23;;;;;;;9.38;5.28;;;;;;;14.83;82.72;100732.47;4842007;29;20032;-84
2021/08/04 02:05:49;;;;;;;8.60;4.82;;;;;;;14.77;82.83;100722.47;4847729;29;20178;-85
2021/08/04 02:08:26;;;;;;;9.23;5.20;;;;;;;14.74;83.31;100728.28;4854779;29;20040;-84
2021/08/04 02:11:03;;;;;;;10.32;5.35;;;;;;;14.64;83.64;100727.84;4855337;29;20060;-86
2021/08/04 02:13:45;;;;;;;15.60;5.90;;;;;;;14.58;84.10;100717.81;4857918;29;20035;-85
2021/08/04 02:16:27;;;;;;;12.70;6.05;;;;;;;14.67;83.26;100722.00;4845116;29;20034;-85
2021/08/04 02:19:13;;;;;;;10.50;5.72;;;;;;;14.70;83.34;100721.59;4857344;29;20771;-85
2021/08/04 02:21:41;;;;;;;12.40;5.43;;;;;;;14.78;83.13;100717.88;4872466;29;20037;-86
2021/08/04 02:24:07;;;;;;;12.40;6.18;;;;;;;14.83;83.37;100715.38;4856297;29;20109;-85
2021/08/04 02:26:32;;;;;;;12.57;4.97;;;;;;;14.73;83.51;100708.47;4860797;29;20040;-86
2021/08/04 02:28:59;;;;;;;11.02;5.72;;;;;;;14.75;83.46;100711.00;4861255;29;20052;-85
2021/08/04 02:31:25;;;;;;;11.55;5.40;;;;;;;14.77;83.80;100702.69;4858864;29;20041;-85
2021/08/04 02:33:51;;;;;;;11.95;5.10;;;;;;;14.79;83.65;100708.69;4860586;29;20038;-85
2021/08/04 02:36:16;;;;;;;10.00;4.93;;;;;;;14.66;83.88;100704.09;4858174;29;20029;-85
2021/08/04 02:38:42;;;;;;;10.43;4.65;;;;;;;14.70;83.78;100708.06;4857417;29;20030;-85
2021/08/04 02:41:07;;;;;;;11.65;5.03;;;;;;;14.67;83.77;100711.19;4840213;29;20043;-86
2021/08/04 02:43:33;;;;;;;11.25;4.68;;;;;;;14.66;83.82;100718.47;4861813;29;20036;-84
2021/08/04 02:45:59;;;;;;;13.13;4.55;;;;;;;14.61;84.15;100714.72;4859817;29;20029;-85
2021/08/04 02:48:25;;;;;;;9.05;4.72;;;;;;;14.49;84.12;100698.19;4860782;29;20041;-85
2021/08/04 02:50:59;;;;;;;9.63;4.18;;;;;;;14.51;84.26;100712.34;4860400;29;20037;-85
2021/08/04 02:53:24;;;;;;;;;;;;;;;14.45;84.60;100715.88;4856911;29;20034;-85
2021/08/04 02:55:51;;;;;;;12.80;5.03;;;;;;;14.29;84.88;100714.34;4873197;29;19938;-85
2021/08/04 02:58:17;;;;;;;10.02;5.07;;;;;;;14.32;84.85;100716.66;4856793;29;20037;-85
2021/08/04 03:00:42;;;;;;;12.32;5.35;;;;;;;14.35;84.73;100707.31;4843705;29;20029;-86
2021/08/04 03:03:08;;;;;;;11.18;5.40;;;;;;;14.26;84.60;100693.94;4870906;29;20319;-85
2021/08/04 03:05:33;;;;;;;10.35;5.35;;;;;;;14.22;84.92;100692.66;4873643;29;20033;-85
2021/08/04 03:07:59;;;;;;;13.18;5.13;;;;;;;14.19;84.87;100701.19;4858126;29;20037;-85
2021/08/04 03:10:24;;;;;;;10.18;5.15;;;;;;;14.12;85.16;100691.38;4845973;29;20033;-84
2021/08/04 03:12:50;;;;;;;8.15;4.78;;;;;;;14.08;84.97;100696.38;4841606;29;20065;-86
2021/08/04 03:15:16;;;;;;;10.70;5.05;;;;;;;13.94;85.36;100676.50;4854351;29;20033;-85
2021/08/04 03:17:41;;;;;;;12.52;5.28;;;;;;;13.67;85.99;100656.63;4854520;29;20041;-85
2021/08/04 03:20:08;;;;;;;11.98;5.10;;;;;;;13.86;86.06;100687.50;4852897;29;20511;-85
2021/08/04 03:22:34;;;;;;;9.65;4.70;;;;;;;13.76;86.17;100673.50;4836983;29;20117;-84
2021/08/04 03:24:59;;;;;;;11.23;5.05;;;;;;;13.75;86.05;100669.97;4838885;29;20186;-85
2021/08/04 03:27:24;;;;;;;11.60;5.32;;;;;;;13.76;86.45;100677.06;4850333;29;20037;-85
2021/08/04 03:29:50;;;;;;;10.60;4.40;;;;;;;13.65;86.63;100655.97;4854568;29;20037;-85
2021/08/04 03:32:16;;;;;;;11.10;4.93;;;;;;;13.85;86.43;100683.13;4853257;29;20120;-85
2021/08/04 03:34:41;;;;;;;9.93;4.80;;;;;;;13.90;86.65;100690.66;4852553;29;20483;-85
2021/08/04 03:37:07;;;;;;;10.07;4.93;;;;;;;13.92;86.20;100692.13;4853820;29;20119;-85
2021/08/04 03:39:32;;;;;;;13.32;4.97;;;;;;;13.92;86.31;100686.72;4853269;29;20044;-85
2021/08/04 03:41:58;;;;;;;10.73;5.00;;;;;;;13.98;86.58;100696.72;4856305;29;20052;-86
2021/08/04 03:44:23;;;;;;;10.27;4.95;;;;;;;13.96;85.99;100689.84;4855310;29;20104;-83
2021/08/04 03:46:49;;;;;;;10.77;4.85;;;;;;;13.92;85.91;100684.00;4855339;29;20029;-84
2021/08/04 03:49:15;;;;;;;11.00;4.75;;;;;;;13.82;86.47;100692.47;4839532;29;20029;-83
2021/08/04 03:51:41;;;;;;;11.40;4.88;;;;;;;13.69;87.14;100675.34;4839341;29;20465;-84
2021/08/04 03:54:06;;;;;;;10.73;4.97;;;;;;;13.71;87.15;100695.72;4839092;29;20499;-84
2021/08/04 03:56:31;;;;;;;12.13;5.70;;;;;;;13.60;87.57;100696.25;4839632;29;20080;-85
2021/08/04 03:58:57;;;;;;;11.20;5.10;;;;;;;13.56;87.32;100682.31;4851341;29;20427;-84
2021/08/04 04:01:22;;;;;;;12.35;5.45;;;;;;;13.68;87.28;100697.97;4853500;29;20133;-84
2021/08/04 04:03:48;;;;;;;10.18;5.68;;;;;;;13.71;87.32;100692.19;4853628;29;20097;-85
2021/08/04 04:06:13;;;;;;;10.02;4.90;;;;;;;13.79;87.02;100692.88;4844654;29;20033;-84
2021/08/04 04:08:39;;;;;;;15.48;5.15;;;;;;;13.79;87.03;100697.44;4853617;29;20029;-84
2021/08/04 04:11:05;;;;;;;10.25;4.75;;;;;;;13.81;87.43;100706.16;4854612;29;20508;-85
2021/08/04 04:13:31;;;;;;;8.80;4.97;;;;;;;13.77;87.14;100694.09;4853463;29;20113;-84
2021/08/04 04:15:57;;;;;;;9.75;4.65;;;;;;;13.71;87.41;100694.91;4851863;29;20033;-85
2021/08/04 04:18:22;;;;;;;10.75;5.43;;;;;;;13.67;87.55;100685.50;4855039;29;20100;-84
2021/08/04 04:20:48;;;;;;;10.55;5.53;;;;;;;13.66;87.60;100679.28;4852297;29;20433;-84
2021/08/04 04:23:13;;;;;;;13.95;5.57;;;;;;;13.71;87.40;100678.69;4835369;29;20030;-84
2021/08/04 04:25:39;;;;;;;9.98;5.10;;;;;;;13.76;87.22;100687.00;4845084;29;20059;-84
2021/08/04 04:28:04;;;;;;;11.57;5.07;;;;;;;13.77;87.64;100677.88;4853463;29;20506;-84
2021/08/04 04:30:29;;;;;;;9.48;4.90;;;;;;;13.72;87.56;100675.78;4852586;29;20033;-84
2021/08/04 04:32:55;;;;;;;11.23;5.50;;;;;;;13.74;87.92;100684.53;4838418;29;21624;-83
2021/08/04 04:35:20;;;;;;;11.10;4.95;;;;;;;13.70;87.80;100674.31;4853983;29;20081;-84
2021/08/04 04:37:46;;;;;;;13.15;5.38;;;;;;;13.58;88.05;100672.16;4853765;29;20031;-84
2021/08/04 04:40:11;;;;;;;10.63;5.32;;;;;;;13.55;87.61;100663.63;4842006;29;20035;-84
2021/08/04 04:42:37;;;;;;;14.13;5.97;;;;;;;13.61;87.88;100668.22;4841899;29;20120;-85
2021/08/04 04:45:03;;;;;;;9.85;5.13;;;;;;;13.63;87.61;100671.56;4851130;29;20113;-84
2021/08/04 04:47:28;;;;;;;12.00;5.28;;;;;;;13.66;87.49;100667.63;4851539;29;20037;-84
2021/08/04 04:49:53;;;;;;;12.32;5.13;;;;;;;13.56;87.78;100655.31;4867556;29;20037;-83
2021/08/04 04:52:19;;;;;;;10.15;4.90;;;;;;;13.61;88.08;100663.66;4851459;29;20486;-84
2021/08/04 04:54:44;;;;;;;11.15;5.13;;;;;;;13.59;87.76;100660.31;4850877;29;20078;-85
2021/08/04 04:57:10;;;;;;;10.40;5.18;;;;;;;13.67;87.52;100672.00;4866850;29;20029;-82
2021/08/04 04:59:35;;;;;;;12.38;5.28;;;;;;;13.64;87.43;100671.34;4851544;29;20048;-83
2021/08/04 05:02:00;;;;;;;9.65;4.85;;;;;;;13.66;87.26;100675.75;4857199;29;20078;-85
2021/08/04 05:04:26;;;;;;;10.63;6.00;;;;;;;13.64;87.14;100676.75;4837088;29;20022;-84
2021/08/04 05:06:51;;;;;;;10.93;4.95;;;;;;;13.66;87.26;100689.25;4872565;29;20089;-84
2021/08/04 05:09:17;;;;;;;14.98;5.45;;;;;;;13.59;87.17;100681.91;4858037;29;20026;-84
2021/08/04 05:11:42;;;;;;;11.55;5.18;;;;;;;13.59;87.17;100676.50;4839546;29;20044;-84
2021/08/04 05:14:08;;;;;;;15.02;5.68;;;;;;;13.45;87.30;100646.94;4855176;29;20429;-85
2021/08/04 05:16:33;;;;;;;10.70;5.05;;;;;;;13.64;87.54;100681.34;4844036;29;20029;-85
2021/08/04 05:18:59;;;;;;;13.48;5.40;;;;;;;13.70;87.53;100683.22;4860251;29;20414;-85
2021/08/04 05:21:24;;;;;;;10.95;5.32;;;;;;;13.57;87.48;100658.84;4843174;29;20086;-84
2021/08/04 05:23:50;;;;;;;12.63;5.88;;;;;;;13.73;87.28;100682.00;4858358;29;20526;-84
2021/08/04 05:26:15;;;;;;;12.02;5.53;;;;;;;13.67;87.46;100678.22;4845524;29;20539;-86
2021/08/04 05:28:40;;;;;;;14.93;5.93;;;;;;;13.61;88.19;100679.88;4854503;29;20521;-83
2021/08/04 05:31:06;;;;;;;10.38;5.65;;;;;;;13.60;88.23;100683.59;4857176;29;20033;-85
2021/08/04 05:33:31;;;;;;;11.15;4.95;;;;;;;13.41;88.20;100662.66;4855719;29;20551;-83
2021/08/04 05:35:57;;;;;;;11.88;5.32;;;;;;;13.44;88.16;100666.84;4855638;29;20484;-84
2021/08/04 05:38:22;;;;;;;12.57;5.45;;;;;;;13.49;88.41;100667.91;4857195;29;20048;-84
2021/08/04 05:40:48;;;;;;;15.88;5.88;;;;;;;13.46;88.46;100671.03;4856915;29;20312;-86
2021/08/04 05:43:13;;;;;;;16.08;6.07;;;;;;;13.52;88.54;100672.97;4852125;29;20042;-85
2021/08/04 05:45:39;;;;;;;11.90;5.55;;;;;;;13.52;88.34;100664.84;4851272;29;20033;-84
2021/08/04 05:48:05;;;;;;;11.48;5.28;;;;;;;13.50;88.60;100664.22;4842744;29;20086;-82
2021/08/04 05:50:31;;;;;;;13.13;5.50;;;;;;;13.40;88.78;100644.81;4854918;29;20048;-83
2021/08/04 05:52:56;;;;;;;10.75;5.85;;;;;;;13.55;88.79;100666.31;4856855;29;20503;-83
2021/08/04 05:55:22;;;;;;;12.00;5.50;;;;;;;13.38;89.13;100647.69;4840504;29;20040;-83
2021/08/04 05:57:48;;;;;;;12.73;6.00;;;;;;;13.50;89.36;100661.50;4856996;29;20066;-84
2021/08/04 06:00:13;;;;;;;12.40;5.40;;;;;;;13.63;89.26;100669.69;4854685;29;20440;-83
2021/08/04 06:02:39;;;;;;;14.50;6.22;;;;;;;13.65;88.87;100666.78;4856701;29;20041;-83
2021/08/04 06:05:05;;;;;;;13.02;5.63;;;;;;;13.76;88.91;100679.75;4873422;29;20030;-86
2021/08/04 06:07:31;;;;;;;13.30;6.35;;;;;;;13.79;88.89;100675.81;4842410;29;20040;-85
2021/08/04 06:09:56;;;;;;;11.27;5.40;;;;;;;13.90;88.42;100679.84;4840813;29;20049;-86
2021/08/04 06:12:22;;;;;;;13.20;5.55;;;;;;;13.99;88.42;100681.31;4856773;29;20527;-84
2021/08/04 06:14:47;;;;;;;12.50;5.45;;;;;;;13.94;88.75;100678.38;4841311;29;20022;-84
2021/08/04 06:17:12;;;;;;;9.90;5.32;;;;;;;13.98;88.76;100685.06;4856859;29;20132;-85
2021/08/04 06:19:38;;;;;;;11.95;5.38;;;;;;;14.01;88.44;100685.50;4856493;29;20060;-84
2021/08/04 06:22:03;;;;;;;15.63;5.85;;;;;;;14.07;88.42;100695.50;4856422;29;20676;-85
2021/08/04 06:24:29;;;;;;;12.18;5.30;;;;;;;14.03;88.53;100693.41;4855949;29;20081;-84
2021/08/04 06:26:54;;;;;;;16.67;7.15;;;;;;;14.07;88.85;100691.97;4870849;29;20530;-86
2021/08/04 06:29:21;;;;;;;14.18;6.45;;;;;;;14.11;88.52;100697.84;4841893;29;20029;-84
2021/08/04 06:31:47;;;;;;;11.65;5.47;;;;;;;14.16;88.71;100687.25;4849920;29;20033;-84
2021/08/04 06:34:12;;;;;;;14.00;6.10;;;;;;;14.26;88.23;100696.66;4855530;29;20025;-85
2021/08/04 06:36:38;;;;;;;14.38;6.15;;;;;;;14.26;88.43;100687.69;4841122;29;20034;-84
2021/08/04 06:39:03;;;;;;;13.02;6.38;;;;;;;14.06;88.55;100658.69;4858451;29;20037;-83
2021/08/04 06:41:29;;;;;;;12.38;5.38;;;;;;;14.28;88.38;100683.75;4852586;29;20497;-81
2021/08/04 06:43:54;;;;;;;11.80;6.57;;;;;;;14.27;88.49;100678.56;4855687;29;20033;-85
2021/08/04 06:46:20;;;;;;;10.15;6.00;;;;;;;14.36;88.28;100687.31;4870176;29;20828;-84
2021/08/04 06:48:45;;;;;;;11.82;6.53;;;;;;;14.45;87.82;100695.06;4836386;29;20029;-86
2021/08/04 06:51:12;;;;;;;12.05;5.75;;;;;;;14.50;88.07;100680.91;4850716;29;20371;-84
2021/08/04 06:53:38;;;;;;;15.73;6.00;;;;;;;14.65;88.05;100684.31;4855044;29;20034;-84
2021/08/04 06:56:04;;;;;;;13.38;6.82;;;;;;;14.88;87.63;100688.53;4855672;29;20041;-85
2021/08/04 06:58:29;;;;;;;15.80;6.82;;;;;;;15.06;87.75;100687.94;4852533;29;20038;-85
2021/08/04 07:00:55;;;;;;;13.45;6.65;;;;;;;15.19;87.35;100671.69;4852620;29;20097;-86
2021/08/04 07:03:22;;;;;;;14.77;7.40;;;;;;;15.35;86.88;100673.97;4849229;29;20399;-81
2021/08/04 07:05:50;;;;;;;16.23;7.32;;;;;;;15.43;86.52;100666.66;4849832;29;20113;-84
2021/08/04 07:08:18;;;;;;;16.58;8.00;;;;;;;15.61;86.39;100674.97;4854730;29;20033;-83
2021/08/04 07:10:44;;;;;;;21.58;8.75;;;;;;;15.72;86.03;100673.56;4855621;29;20041;-85
2021/08/04 07:13:09;;;;;;;20.02;9.52;;;;;;;15.75;85.62;100687.50;4854183;29;20037;-80
2021/08/04 07:15:35;;;;;;;22.63;10.52;;;;;;;15.78;85.76;100681.66;4855991;29;20025;-81
2021/08/04 07:18:04;;;;;;;24.70;10.38;;;;;;;15.77;85.45;100671.88;4853133;29;20025;-81
2021/08/04 07:20:32;;;;;;;20.95;8.80;;;;;;;15.76;85.18;100678.31;4854498;29;20034;-81
2021/08/04 07:22:58;;;;;;;25.15;10.98;;;;;;;15.78;85.19;100686.25;4855364;29;20044;-81
2021/08/04 07:25:23;;;;;;;24.65;11.02;;;;;;;15.98;84.88;100669.91;4855745;29;20029;-80
2021/08/04 07:27:49;;;;;;;16.27;7.75;;;;;;;16.22;84.77;100688.22;4856312;29;20037;-81
2021/08/04 07:30:15;;;;;;;16.20;7.68;;;;;;;16.40;84.20;100683.94;4850548;29;20515;-81
2021/08/04 07:32:40;;;;;;;13.88;6.30;;;;;;;16.32;84.01;100666.03;4855496;29;20098;-81
2021/08/04 07:35:07;;;;;;;11.90;5.97;;;;;;;16.32;84.02;100676.88;4857448;29;20723;-81
2021/08/04 07:37:34;;;;;;;12.82;6.30;;;;;;;16.33;83.49;100683.16;4841937;29;20137;-81
2021/08/04 07:40:00;;;;;;;14.65;6.00;;;;;;;16.26;83.72;100675.03;4855541;29;20033;-81
2021/08/04 07:42:25;;;;;;;10.45;5.43;;;;;;;16.26;83.45;100673.16;4858850;29;20042;-81
2021/08/04 07:44:52;;;;;;;11.98;6.55;;;;;;;16.32;83.67;100679.59;4853216;29;20029;-80
2021/08/04 07:47:18;;;;;;;12.93;6.40;;;;;;;16.38;84.27;100677.91;4856438;29;20082;-81
2021/08/04 07:49:43;;;;;;;11.55;5.75;;;;;;;16.38;83.81;100670.59;4853448;29;20033;-81
2021/08/04 07:52:09;;;;;;;7.95;4.20;;;;;;;16.43;83.16;100680.78;4838166;29;20060;-81
2021/08/04 07:54:34;;;;;;;8.00;3.83;;;;;;;16.33;82.81;100672.31;4854542;29;20433;-81
2021/08/04 07:57:00;;;;;;;9.43;3.67;;;;;;;16.26;82.82;100680.47;4855677;29;20402;-81
2021/08/04 07:59:26;;;;;;;8.02;3.75;;;;;;;16.22;83.00;100677.38;4841048;29;20036;-81
2021/08/04 08:01:52;;;;;;;6.85;3.78;;;;;;;16.11;83.23;100666.31;4847545;29;20025;-83
2021/08/04 08:04:17;;;;;;;8.43;3.83;;;;;;;16.13;83.13;100673.22;4854661;29;20022;-84
2021/08/04 08:06:43;;;;;;;8.18;4.05;;;;;;;16.14;83.40;100668.59;4852871;29;20457;-83
2021/08/04 08:09:10;;;;;;;8.50;3.70;;;;;;;16.05;83.34;100660.72;4848491;29;20086;-83
2021/08/04 08:11:36;;;;;;;9.60;4.32;;;;;;;16.14;83.46;100672.19;4853478;29;20040;-84
2021/08/04 08:14:02;;;;;;;7.32;3.90;;;;;;;16.15;83.34;100667.59;4853021;29;20394;-83
2021/08/04 08:16:27;;;;;;;8.27;3.67;;;;;;;16.01;83.40;100640.50;4844537;29;20033;-83
2021/08/04 08:18:52;;;;;;;6.55;3.28;;;;;;;16.22;83.57;100671.94;4855580;29;20029;-83
2021/08/04 08:21:22;;;;;;;6.22;3.45;;;;;;;16.30;82.91;100679.00;4841470;29;20021;-83
2021/08/04 08:23:48;;;;;;;6.32;3.30;;;;;;;16.32;82.59;100662.50;4855535;29;20025;-83
2021/08/04 08:26:13;;;;;;;6.38;3.33;;;;;;;16.42;82.24;100674.53;4856387;29;20040;-83
2021/08/04 08:28:39;;;;;;;8.15;3.33;;;;;;;16.47;81.97;100665.75;4843230;29;20412;-84
2021/08/04 08:31:04;;;;;;;5.80;2.88;;;;;;;16.50;81.46;100670.75;4839405;29;20036;-83
2021/08/04 08:33:30;;;;;;;4.60;2.72;;;;;;;16.56;81.18;100674.47;4856296;29;20032;-84
2021/08/04 08:35:55;;;;;;;5.10;2.60;;;;;;;16.51;80.33;100655.28;4845989;29;20041;-83
2021/08/04 08:38:20;;;;;;;6.80;2.83;;;;;;;16.56;80.28;100648.16;4854884;29;20033;-83
2021/08/04 08:40:46;;;;;;;4.55;2.78;;;;;;;16.83;79.07;100658.88;4853158;29;20030;-83
2021/08/04 08:43:14;;;;;;;5.75;2.75;;;;;;;17.03;78.54;100675.88;4855927;29;20061;-84
2021/08/04 08:45:40;;;;;;;5.90;3.03;;;;;;;17.23;77.70;100658.59;4854331;29;20084;-85
2021/08/04 08:48:06;;;;;;;7.07;3.10;;;;;;;17.36;76.47;100664.75;4849396;29;20506;-83
2021/08/04 08:50:32;;;;;;;4.60;2.47;;;;;;;17.45;76.10;100648.97;4848586;29;20033;-83
2021/08/04 08:52:58;;;;;;;6.03;2.92;;;;;;;17.61;75.61;100646.72;4842690;29;20110;-83
2021/08/04 08:55:24;;;;;;;5.82;2.75;;;;;;;17.69;74.93;100654.59;4848743;29;20170;-83
2021/08/04 08:57:50;;;;;;;5.13;3.03;;;;;;;17.65;75.11;100647.94;4843596;29;20028;-84
2021/08/04 09:00:16;;;;;;;4.70;2.88;;;;;;;17.64;74.94;100638.94;4849981;29;20021;-83
2021/08/04 09:02:42;;;;;;;6.03;3.15;;;;;;;17.64;74.27;100649.81;4828757;29;20033;-84
2021/08/04 09:05:10;;;;;;;5.57;3.30;;;;;;;17.53;74.32;100645.13;4839602;29;20108;-83
2021/08/04 09:07:37;;;;;;;4.32;2.67;;;;;;;17.41;74.67;100645.06;4851915;29;20503;-84
2021/08/04 09:10:25;;;;;;;5.25;3.08;;;;;;;17.36;75.27;100647.59;4854583;29;20033;-84
2021/08/04 09:12:53;;;;;;;6.10;3.22;;;;;;;17.22;75.65;100636.00;4844721;29;20033;-84
2021/08/04 09:15:33;;;;;;;7.50;2.67;;;;;;;17.19;76.28;100644.59;4851622;29;20030;-84
2021/08/04 09:18:09;;;;;;;5.28;3.20;;;;;;;17.12;76.73;100639.25;4872569;29;20021;-85
2021/08/04 09:20:56;;;;;;;6.22;2.95;;;;;;;17.08;76.80;100637.19;4849979;29;20032;-83
2021/08/04 09:23:27;;;;;;;4.45;2.58;;;;;;;17.05;76.76;100632.19;4867863;29;20018;-85
2021/08/04 09:26:07;;;;;;;5.80;2.95;;;;;;;17.12;76.45;100630.22;4852548;29;20526;-83
2021/08/04 09:29:03;;;;;;;4.57;3.00;;;;;;;17.42;75.96;100638.53;4852194;29;20041;-83
2021/08/04 09:31:43;;;;;;;6.18;2.97;;;;;;;17.65;75.43;100639.78;4851132;29;20049;-85
2021/08/04 09:34:29;;;;;;;5.25;2.60;;;;;;;17.96;74.87;100642.38;4867789;29;20033;-83
2021/08/04 09:37:07;;;;;;;4.22;2.63;;;;;;;18.29;74.35;100643.03;4858000;29;20041;-83
2021/08/04 09:39:33;;;;;;;5.18;2.58;;;;;;;18.54;72.58;100637.44;4855483;29;20052;-83
2021/08/04 09:42:00;;;;;;;4.47;2.45;;;;;;;18.66;72.15;100632.88;4844862;29;20027;-84
2021/08/04 09:44:25;;;;;;;3.92;2.50;;;;;;;18.62;72.05;100621.59;4839093;29;20113;-84
2021/08/04 09:47:11;;;;;;;5.15;2.67;;;;;;;18.50;72.03;100634.38;4857634;29;20071;-84
2021/08/04 09:49:38;;;;;;;4.55;2.20;;;;;;;18.37;72.44;100624.50;4856825;29;20436;-85
2021/08/04 09:52:09;;;;;;;6.28;2.20;;;;;;;18.27;72.79;100624.22;4860934;29;20487;-84
2021/08/04 09:54:42;;;;;;;4.47;2.45;;;;;;;18.18;73.06;100617.44;4861955;29;20064;-84
2021/08/04 09:57:08;;;;;;;4.90;2.50;;;;;;;18.12;72.84;100624.59;4852887;29;20029;-84
2021/08/04 09:59:34;;;;;;;4.25;2.38;;;;;;;18.10;73.10;100613.13;4852095;29;20295;-80
2021/08/04 10:01:59;;;;;;;6.15;3.05;;;;;;;18.18;73.39;100610.09;4856460;29;20486;-80
2021/08/04 10:04:25;;;;;;;6.15;2.50;;;;;;;18.21;72.80;100614.25;4846136;29;21954;-80
2021/08/04 10:07:03;;;;;;;4.78;2.53;;;;;;;18.19;72.67;100613.66;4854159;29;20037;-80
2021/08/04 10:09:29;;;;;;;3.63;2.42;;;;;;;18.14;73.07;100602.63;4861459;29;20032;-81
2021/08/04 10:11:54;;;;;;;4.60;2.70;;;;;;;18.24;72.97;100608.34;4858544;29;20030;-80
2021/08/04 10:14:21;;;;;;;3.50;2.15;;;;;;;18.17;73.34;100596.72;4848228;29;20487;-79
2021/08/04 10:16:48;;;;;;;3.08;2.00;;;;;;;18.24;73.62;100609.16;4855098;29;20027;-79
2021/08/04 10:19:14;;;;;;;3.65;2.10;;;;;;;18.28;73.39;100601.38;4846147;29;20386;-79
2021/08/04 10:21:44;;;;;;;3.22;2.00;;;;;;;18.37;73.02;100605.44;4856597;29;20040;-79
2021/08/04 10:24:12;;;;;;;4.93;2.40;;;;;;;18.59;72.32;100594.84;4858554;29;20037;-81
2021/08/04 10:26:38;;;;;;;5.00;2.30;;;;;;;18.75;71.38;100596.09;4852991;29;20029;-81
2021/08/04 10:29:04;;;;;;;4.10;2.40;;;;;;;18.78;71.47;100586.63;4837796;29;20518;-81
2021/08/04 10:31:30;;;;;;;4.80;2.20;;;;;;;18.89;70.92;100583.09;4853044;29;20041;-81
2021/08/04 10:33:58;;;;;;;2.35;1.45;;;;;;;18.85;69.54;100577.28;4852337;29;20041;-82
2021/08/04 10:36:31;;;;;;;3.25;1.80;;;;;;;18.82;68.53;100577.75;4857449;29;20037;-83
2021/08/04 10:39:00;;;;;;;3.20;1.83;;;;;;;18.89;68.40;100581.22;4883414;29;20024;-84
2021/08/04 10:41:27;;;;;;;4.75;1.90;;;;;;;19.15;67.80;100579.06;4879738;29;20510;-84
2021/08/04 10:43:53;;;;;;;5.40;1.83;;;;;;;19.14;67.68;100562.97;4863596;29;20384;-85
2021/08/04 10:46:30;;;;;;;4.85;2.13;;;;;;;19.05;67.43;100562.47;4872299;29;20041;-84
2021/08/04 10:49:09;;;;;;;4.60;1.90;;;;;;;19.01;68.56;100569.50;4886867;29;20041;-85
2021/08/04 10:51:50;;;;;;;4.75;2.15;;;;;;;18.97;68.76;100568.28;4883575;29;20060;-85
2021/08/04 10:54:18;;;;;;;3.80;2.10;;;;;;;18.93;68.22;100557.03;4878090;29;20025;-85
2021/08/04 10:56:44;;;;;;;5.18;2.60;;;;;;;19.64;67.00;100565.19;4862913;29;20056;-85
2021/08/04 10:59:12;;;;;;;3.15;2.17;;;;;;;20.26;65.92;100570.78;4878868;29;20034;-84
2021/08/04 11:01:49;;;;;;;3.55;1.50;;;;;;;20.92;63.72;100568.41;4870473;29;20048;-85
2021/08/04 11:04:27;;;;;;;2.80;1.80;;;;;;;21.02;62.75;100554.09;4865996;29;20033;-85
2021/08/04 11:07:08;;;;;;;6.40;2.38;;;;;;;21.02;61.94;100554.91;4884800;29;20468;-85
2021/08/04 11:09:46;;;;;;;4.72;2.40;;;;;;;21.23;61.46;100553.31;4875886;29;20037;-84
2021/08/04 11:12:15;;;;;;;4.28;2.25;;;;;;;21.32;61.16;100550.97;4875690;29;20040;-84
2021/08/04 11:14:43;;;;;;;3.53;2.42;;;;;;;21.43;60.45;100552.78;4871056;29;20052;-85
2021/08/04 11:17:11;;;;;;;4.30;2.20;;;;;;;21.02;61.36;100535.78;4863600;29;20029;-83
2021/08/04 11:20:10;;;;;;;3.70;2.10;;;;;;;20.80;62.48;100543.09;4860429;29;20084;-81
2021/08/04 11:22:39;;;;;;;3.80;2.58;;;;;;;20.92;61.65;100540.25;4830158;29;20044;-85